Time;durP1;ratioP1;P1;durP2;ratioP2;P2;SDS_P1;SDS_P2;PMS_P1;PMS_P2;Temp;Humidity;BMP_temperature;BMP_pressure;BME280_temperature;BME280_humidity;BME280_pressure;Samples;Min_cycle;Max_cycle;Signal;HPM_P1;HPM_P2
2023/01/24 00:01:38;;;;;;;0.70;0.70;;;3.70;99.90;;;;;;5051096;27;20047;-91
2023/01/24 00:04:06;;;;;;;0.73;0.73;;;3.90;99.90;;;;;;5045949;27;20208;-91
2023/01/24 00:06:35;;;;;;;0.70;0.70;;;3.80;99.90;;;;;;5054684;27;20055;-92
2023/01/24 00:09:03;;;;;;;0.70;0.70;;;3.80;99.90;;;;;;5045035;27;20696;-92
2023/01/24 00:11:29;;;;;;;0.70;0.70;;;3.80;99.90;;;;;;5036151;27;20070;-91
2023/01/24 00:13:58;;;;;;;0.70;0.70;;;3.80;99.90;;;;;;5039656;27;20344;-91
2023/01/24 00:16:24;;;;;;;0.70;0.70;;;3.80;99.90;;;;;;5055901;27;20055;-91
2023/01/24 00:18:50;;;;;;;0.77;0.77;;;3.80;99.90;;;;;;5051370;27;20051;-91
2023/01/24 00:21:19;;;;;;;0.70;0.70;;;3.80;99.90;;;;;;5046285;27;20047;-91
2023/01/24 00:23:54;;;;;;;0.70;0.70;;;3.80;99.90;;;;;;5044681;27;20368;-92
2023/01/24 00:26:21;;;;;;;0.70;0.70;;;3.80;99.90;;;;;;5045406;27;20253;-91
2023/01/24 00:28:47;;;;;;;0.70;0.70;;;3.80;99.90;;;;;;5044412;27;20329;-91
2023/01/24 00:31:16;;;;;;;0.70;0.70;;;3.80;99.90;;;;;;5043794;27;20039;-91
2023/01/24 00:33:45;;;;;;;0.70;0.70;;;3.80;99.90;;;;;;5033512;27;20420;-90
2023/01/24 00:36:11;;;;;;;0.80;0.80;;;3.80;99.90;;;;;;5052887;27;20564;-91
2023/01/24 00:38:37;;;;;;;0.70;0.70;;;3.80;99.90;;;;;;5040648;27;20331;-91
2023/01/24 00:41:03;;;;;;;0.70;0.70;;;3.90;99.90;;;;;;5048247;27;20281;-91
2023/01/24 00:43:32;;;;;;;0.70;0.70;;;3.90;99.90;;;;;;5045909;27;20180;-92
2023/01/24 00:45:57;;;;;;;0.70;0.70;;;3.80;99.90;;;;;;5042008;27;20047;-91
2023/01/24 00:48:26;;;;;;;0.70;0.70;;;3.80;99.90;;;;;;5063802;27;20132;-91
2023/01/24 00:50:55;;;;;;;0.70;0.70;;;3.80;99.90;;;;;;5041380;27;20055;-91
2023/01/24 00:53:25;;;;;;;0.70;0.70;;;3.80;99.90;;;;;;5042810;27;20476;-91
2023/01/24 00:55:54;;;;;;;0.70;0.70;;;3.90;99.90;;;;;;5042337;27;20078;-92
2023/01/24 00:58:21;;;;;;;0.70;0.70;;;3.80;99.90;;;;;;5039854;27;20043;-91
2023/01/24 01:00:52;;;;;;;0.70;0.70;;;3.80;99.90;;;;;;5051985;28;20048;-91
2023/01/24 01:03:24;;;;;;;0.70;0.70;;;3.90;99.90;;;;;;5050877;27;20881;-91
2023/01/24 01:06:10;;;;;;;0.70;0.70;;;3.90;99.90;;;;;;5039264;27;20346;-90
2023/01/24 01:08:36;;;;;;;0.70;0.70;;;3.80;99.90;;;;;;5040779;27;20090;-91
2023/01/24 01:11:01;;;;;;;0.70;0.70;;;3.90;99.90;;;;;;5039657;27;20146;-91
2023/01/24 01:13:33;;;;;;;0.70;0.70;;;3.90;99.90;;;;;;5026193;27;20507;-91
2023/01/24 01:16:13;;;;;;;0.70;0.70;;;3.80;99.90;;;;;;5043810;27;20790;-91
2023/01/24 01:18:39;;;;;;;0.70;0.70;;;3.90;99.90;;;;;;5020302;27;20212;-91
2023/01/24 01:21:06;;;;;;;0.70;0.70;;;3.90;99.90;;;;;;5042811;27;20392;-91
2023/01/24 01:23:32;;;;;;;0.70;0.70;;;3.80;99.90;;;;;;5049444;27;20397;-91
2023/01/24 01:26:03;;;;;;;0.70;0.70;;;3.90;99.90;;;;;;5045522;27;20339;-92
2023/01/24 01:28:29;;;;;;;0.70;0.70;;;3.80;99.90;;;;;;5037561;27;20035;-93
2023/01/24 01:30:59;;;;;;;0.70;0.70;;;3.80;99.90;;;;;;5041542;27;20461;-91
2023/01/24 01:33:28;;;;;;;0.70;0.70;;;3.90;99.90;;;;;;5050208;27;20039;-91
2023/01/24 01:35:54;;;;;;;0.70;0.70;;;3.90;99.90;;;;;;5040498;27;20045;-91
2023/01/24 01:38:20;;;;;;;0.80;0.80;;;3.90;99.90;;;;;;5041780;28;20210;-92
2023/01/24 01:40:46;;;;;;;0.70;0.70;;;3.90;99.90;;;;;;5062717;27;20870;-92
2023/01/24 01:43:22;;;;;;;0.70;0.70;;;3.90;99.90;;;;;;5037971;27;20050;-92
2023/01/24 01:45:52;;;;;;;0.70;0.70;;;3.90;99.90;;;;;;5035482;28;20053;-93
2023/01/24 01:48:47;;;;;;;0.70;0.70;;;3.80;99.90;;;;;;5040633;28;20087;-92
2023/01/24 01:51:45;;;;;;;0.70;0.70;;;3.90;99.90;;;;;;5042997;28;21202;-89
2023/01/24 01:54:28;;;;;;;0.80;0.80;;;3.80;99.90;;;;;;5028613;28;20047;-92
2023/01/24 01:57:23;;;;;;;0.70;0.70;;;3.90;99.90;;;;;;5040735;28;20065;-92
2023/01/24 02:00:12;;;;;;;0.70;0.70;;;3.90;99.90;;;;;;5031168;28;20100;-91
2023/01/24 02:02:40;;;;;;;0.70;0.70;;;4.00;99.90;;;;;;5044706;28;20446;-92
2023/01/24 02:05:10;;;;;;;0.80;0.80;;;3.90;99.90;;;;;;5042828;28;20135;-90
2023/01/24 02:07:57;;;;;;;0.70;0.70;;;3.90;99.90;;;;;;5039095;28;20757;-92
2023/01/24 02:10:24;;;;;;;0.70;0.70;;;3.90;99.90;;;;;;5039460;28;20044;-92
2023/01/24 02:12:57;;;;;;;0.70;0.70;;;3.90;99.90;;;;;;5023563;28;20050;-92
2023/01/24 02:18:14;;;;;;;0.70;0.70;;;3.90;99.90;;;;;;5058018;28;20314;-92
2023/01/24 02:20:43;;;;;;;0.70;0.70;;;3.90;99.90;;;;;;5045945;28;20472;-91
2023/01/24 02:23:18;;;;;;;0.70;0.70;;;3.80;99.90;;;;;;5044413;28;20059;-90
2023/01/24 02:25:44;;;;;;;0.70;0.70;;;3.80;99.90;;;;;;5043729;28;20455;-92
2023/01/24 02:28:13;;;;;;;0.70;0.70;;;3.80;99.90;;;;;;5040063;28;20544;-91
2023/01/24 02:30:42;;;;;;;0.70;0.70;;;3.80;99.90;;;;;;5031998;28;20331;-92
2023/01/24 02:33:20;;;;;;;0.70;0.70;;;3.80;99.90;;;;;;5034013;28;20911;-91
2023/01/24 02:35:46;;;;;;;0.70;0.70;;;3.80;99.90;;;;;;5044924;28;20047;-92
2023/01/24 02:38:23;;;;;;;0.70;0.70;;;3.90;99.90;;;;;;5046622;28;20043;-93
2023/01/24 02:40:53;;;;;;;0.70;0.70;;;3.90;99.90;;;;;;5047603;28;20354;-92
2023/01/24 02:43:30;;;;;;;0.70;0.70;;;3.80;99.90;;;;;;5040278;28;20389;-92
2023/01/24 02:45:56;;;;;;;0.73;0.73;;;3.80;99.90;;;;;;5039320;28;20881;-91
2023/01/24 02:48:22;;;;;;;0.73;0.73;;;3.80;99.90;;;;;;5033467;28;20056;-91
2023/01/24 02:53:33;;;;;;;0.70;0.70;;;3.80;99.90;;;;;;5061536;28;20178;-91
2023/01/24 02:58:56;;;;;;;0.80;0.80;;;3.80;99.90;;;;;;5059893;28;20048;-93
2023/01/24 03:01:22;;;;;;;0.80;0.80;;;3.70;99.90;;;;;;5040021;28;20536;-90
2023/01/24 03:03:50;;;;;;;0.80;0.80;;;3.70;99.90;;;;;;5035195;28;20170;-91
2023/01/24 03:06:17;;;;;;;0.70;0.70;;;3.80;99.90;;;;;;5044488;28;20556;-92
2023/01/24 03:08:46;;;;;;;0.70;0.70;;;3.80;99.90;;;;;;5036073;27;20087;-92
2023/01/24 03:11:29;;;;;;;0.80;0.80;;;3.70;99.90;;;;;;5043341;27;20809;-92
2023/01/24 03:35:54;;;;;;;0.70;0.70;;;3.60;99.90;;;;;;5061240;27;20085;-92
2023/01/24 03:41:07;;;;;;;0.80;0.80;;;3.60;99.90;;;;;;5062220;27;20043;-92
2023/01/24 03:43:35;;;;;;;0.70;0.70;;;3.70;99.90;;;;;;5041842;27;20046;-93
2023/01/24 03:46:01;;;;;;;0.80;0.80;;;3.60;99.90;;;;;;5039966;27;20050;-92
2023/01/24 03:48:34;;;;;;;0.70;0.70;;;3.60;99.90;;;;;;5033420;27;20055;-93
2023/01/24 03:53:45;;;;;;;0.73;0.73;;;3.60;99.90;;;;;;5054023;27;20103;-92
2023/01/24 03:56:11;;;;;;;0.70;0.70;;;3.60;99.90;;;;;;5052642;27;20039;-92
2023/01/24 03:58:39;;;;;;;0.70;0.70;;;3.60;99.90;;;;;;5047383;27;21015;-92
2023/01/24 04:01:05;;;;;;;0.77;0.77;;;3.60;99.90;;;;;;5046421;27;20054;-91
2023/01/24 04:03:34;;;;;;;0.70;0.70;;;3.60;99.90;;;;;;5048994;27;20047;-92
2023/01/24 04:06:02;;;;;;;0.70;0.70;;;3.60;99.90;;;;;;5043946;27;20364;-92
2023/01/24 04:08:31;;;;;;;0.70;0.70;;;3.50;99.90;;;;;;5008532;27;20145;-91
2023/01/24 04:10:57;;;;;;;0.80;0.80;;;3.60;99.90;;;;;;5030916;27;20039;-92
2023/01/24 04:13:23;;;;;;;6.03;5.60;;;3.60;99.90;;;;;;5025169;27;20044;-90
2023/01/24 04:15:54;;;;;;;0.70;0.70;;;3.50;99.90;;;;;;5043466;27;20477;-91
2023/01/24 04:18:20;;;;;;;0.70;0.70;;;3.60;99.90;;;;;;5047270;27;20042;-91
2023/01/24 04:20:46;;;;;;;0.70;0.70;;;3.60;99.90;;;;;;5045928;27;20043;-92
2023/01/24 04:23:12;;;;;;;0.70;0.70;;;3.50;99.90;;;;;;5041434;27;20315;-91
2023/01/24 04:25:38;;;;;;;0.70;0.70;;;3.50;99.90;;;;;;5043806;27;20869;-92
2023/01/24 04:28:06;;;;;;;0.80;0.80;;;3.50;99.90;;;;;;5034668;27;20606;-91
2023/01/24 04:30:32;;;;;;;0.70;0.70;;;3.50;99.90;;;;;;5032989;27;20540;-91
2023/01/24 04:32:58;;;;;;;0.80;0.80;;;3.50;99.90;;;;;;5021545;27;20040;-91
2023/01/24 04:35:28;;;;;;;0.70;0.70;;;3.50;99.90;;;;;;5041851;27;20070;-91
2023/01/24 04:37:57;;;;;;;0.70;0.70;;;3.50;99.90;;;;;;5041216;27;20035;-92
2023/01/24 04:40:23;;;;;;;0.70;0.70;;;3.50;99.90;;;;;;5048487;27;20039;-92
2023/01/24 04:42:52;;;;;;;0.70;0.70;;;3.50;99.90;;;;;;5046510;27;20043;-91
2023/01/24 04:45:18;;;;;;;0.70;0.70;;;3.50;99.90;;;;;;5039870;27;20040;-93
2023/01/24 04:47:45;;;;;;;0.80;0.80;;;3.50;99.90;;;;;;5041507;27;20139;-91
2023/01/24 04:50:11;;;;;;;0.80;0.80;;;3.40;99.90;;;;;;5049440;27;20069;-92
2023/01/24 04:52:36;;;;;;;0.70;0.70;;;3.50;99.90;;;;;;5048036;27;20480;-92
2023/01/24 04:55:03;;;;;;;0.70;0.70;;;3.50;99.90;;;;;;5057711;27;20038;-92
2023/01/24 04:57:28;;;;;;;0.70;0.70;;;3.40;99.90;;;;;;5053798;27;20480;-92
2023/01/24 04:59:54;;;;;;;0.70;0.70;;;3.50;99.90;;;;;;5048357;27;20073;-92
2023/01/24 05:02:20;;;;;;;0.70;0.70;;;3.40;99.90;;;;;;5045961;27;20111;-91
2023/01/24 05:04:49;;;;;;;0.70;0.70;;;3.40;99.90;;;;;;5045436;27;20560;-92
2023/01/24 05:07:17;;;;;;;0.70;0.70;;;3.40;99.90;;;;;;5044118;27;20047;-93
2023/01/24 05:09:46;;;;;;;0.70;0.70;;;3.40;99.90;;;;;;5066233;27;20591;-92
2023/01/24 05:12:12;;;;;;;0.70;0.70;;;3.50;99.90;;;;;;5049764;27;20527;-92
2023/01/24 05:14:40;;;;;;;0.70;0.70;;;3.40;99.90;;;;;;5048939;27;20146;-91
2023/01/24 05:17:06;;;;;;;0.70;0.70;;;3.40;99.90;;;;;;5044745;27;20065;-91
2023/01/24 05:19:34;;;;;;;0.70;0.70;;;3.40;99.90;;;;;;5043102;27;20035;-91
2023/01/24 05:22:00;;;;;;;0.75;0.75;;;3.40;99.90;;;;;;5055175;27;20572;-91
2023/01/24 05:24:26;;;;;;;0.70;0.70;;;3.40;99.90;;;;;;5049171;27;20496;-92
2023/01/24 05:26:55;;;;;;;0.70;0.70;;;3.40;99.90;;;;;;5049255;27;20047;-92
2023/01/24 05:29:21;;;;;;;0.73;0.73;;;3.40;99.90;;;;;;5047055;27;20042;-91
2023/01/24 05:31:51;;;;;;;0.70;0.70;;;3.30;99.90;;;;;;5050998;27;20233;-92
2023/01/24 05:34:17;;;;;;;0.70;0.70;;;3.40;99.90;;;;;;5052992;27;20039;-91
2023/01/24 05:36:43;;;;;;;0.80;0.80;;;3.40;99.90;;;;;;5052190;27;20042;-92
2023/01/24 05:39:09;;;;;;;0.70;0.70;;;3.40;99.90;;;;;;5051858;27;20063;-91
2023/01/24 05:41:35;;;;;;;0.80;0.80;;;3.40;99.90;;;;;;5049073;27;20569;-91
2023/01/24 05:44:01;;;;;;;0.70;0.70;;;3.40;99.90;;;;;;5056650;27;20126;-91
2023/01/24 05:46:29;;;;;;;0.70;0.70;;;3.50;99.90;;;;;;5050825;27;20278;-91
2023/01/24 05:48:55;;;;;;;0.80;0.80;;;3.40;99.90;;;;;;5049366;27;20135;-91
2023/01/24 05:51:21;;;;;;;0.70;0.70;;;3.40;99.90;;;;;;5050932;27;20051;-91
2023/01/24 05:53:47;;;;;;;0.70;0.70;;;3.40;99.90;;;;;;5052757;27;20039;-90
2023/01/24 05:56:19;;;;;;;0.80;0.80;;;3.40;99.90;;;;;;5056370;27;20899;-92
2023/01/24 05:58:46;;;;;;;0.80;0.80;;;3.40;99.90;;;;;;5053213;27;20058;-90
2023/01/24 06:01:18;;;;;;;0.77;0.77;;;3.40;99.90;;;;;;5052727;27;20038;-92
2023/01/24 06:03:49;;;;;;;0.80;0.80;;;3.40;99.90;;;;;;5059135;27;20410;-90
2023/01/24 06:06:19;;;;;;;0.70;0.70;;;3.40;99.90;;;;;;5049880;27;20043;-90
2023/01/24 06:08:45;;;;;;;0.73;0.73;;;3.30;99.90;;;;;;5059729;27;20074;-90
2023/01/24 06:11:25;;;;;;;0.75;0.75;;;3.40;99.90;;;;;;5043820;27;20050;-92
2023/01/24 06:13:55;;;;;;;0.70;0.70;;;3.40;99.90;;;;;;5048392;27;20305;-91
2023/01/24 06:16:24;;;;;;;0.80;0.80;;;3.40;99.90;;;;;;5048171;27;20641;-92
2023/01/24 06:18:51;;;;;;;0.77;0.77;;;3.40;99.90;;;;;;5048647;27;20043;-93
2023/01/24 06:21:35;;;;;;;0.70;0.70;;;3.40;99.90;;;;;;5065024;27;20034;-92
2023/01/24 06:24:01;;;;;;;;;;;3.30;99.90;;;;;;5049581;27;20070;-91
2023/01/24 06:26:27;;;;;;;0.70;0.70;;;3.40;99.90;;;;;;5051909;27;19953;-92
2023/01/24 06:28:56;;;;;;;0.70;0.70;;;3.30;99.90;;;;;;5051786;27;20319;-92
2023/01/24 06:31:38;;;;;;;0.70;0.70;;;3.40;99.90;;;;;;5038196;27;20043;-91
2023/01/24 06:34:24;;;;;;;0.80;0.80;;;3.40;99.90;;;;;;5050068;27;20034;-91
2023/01/24 06:37:14;;;;;;;0.70;0.70;;;3.30;99.90;;;;;;5051453;27;20047;-92
2023/01/24 06:39:49;;;;;;;0.70;0.70;;;3.40;99.90;;;;;;5051404;27;20658;-91
2023/01/24 06:42:17;;;;;;;0.70;0.70;;;3.30;99.90;;;;;;5049549;27;20043;-91
2023/01/24 06:44:42;;;;;;;0.70;0.70;;;3.30;99.90;;;;;;5040456;27;20055;-91
2023/01/24 06:47:11;;;;;;;0.80;0.80;;;3.20;99.90;;;;;;5052278;27;20510;-92
2023/01/24 06:49:37;;;;;;;0.77;0.77;;;3.30;99.90;;;;;;5049244;27;20561;-90
2023/01/24 06:52:04;;;;;;;0.80;0.80;;;3.30;99.90;;;;;;5080018;27;20047;-91
2023/01/24 06:54:30;;;;;;;0.70;0.70;;;3.30;99.90;;;;;;5050739;27;20043;-91
2023/01/24 06:56:59;;;;;;;0.70;0.70;;;3.20;99.90;;;;;;5040436;27;20042;-91
2023/01/24 06:59:29;;;;;;;0.80;0.80;;;3.20;99.90;;;;;;5054468;27;20379;-91
2023/01/24 07:01:55;;;;;;;0.70;0.70;;;3.20;99.90;;;;;;5054149;27;20079;-92
2023/01/24 07:04:21;;;;;;;0.75;0.75;;;3.20;99.90;;;;;;5051636;27;20209;-92
2023/01/24 07:06:52;;;;;;;0.80;0.80;;;3.20;99.90;;;;;;5053603;27;20043;-91
2023/01/24 07:09:19;;;;;;;0.80;0.80;;;3.20;99.90;;;;;;5072543;27;20396;-92
2023/01/24 07:11:52;;;;;;;0.70;0.70;;;3.20;99.90;;;;;;5076449;27;20494;-92
2023/01/24 07:14:22;;;;;;;0.73;0.73;;;3.20;99.90;;;;;;5069542;27;20551;-91
2023/01/24 07:16:57;;;;;;;0.80;0.80;;;3.10;99.90;;;;;;5050186;27;20595;-90
2023/01/24 07:19:26;;;;;;;0.80;0.80;;;3.10;99.90;;;;;;5057109;27;20444;-90
2023/01/24 07:21:56;;;;;;;0.70;0.70;;;3.10;99.90;;;;;;5052124;27;20079;-91
2023/01/24 07:24:27;;;;;;;0.70;0.70;;;3.10;99.90;;;;;;5056898;27;20043;-91
2023/01/24 07:26:57;;;;;;;0.70;0.70;;;3.10;99.90;;;;;;5068070;27;20047;-91
2023/01/24 07:29:23;;;;;;;0.70;0.70;;;3.10;99.90;;;;;;5052849;27;20051;-91
2023/01/24 07:31:49;;;;;;;0.70;0.70;;;3.00;99.90;;;;;;5072120;27;20043;-91
2023/01/24 07:34:16;;;;;;;0.70;0.70;;;3.10;99.90;;;;;;5045764;27;20059;-92
2023/01/24 07:36:43;;;;;;;0.80;0.80;;;3.10;99.90;;;;;;5056549;27;20054;-91
2023/01/24 07:39:10;;;;;;;0.73;0.73;;;3.10;99.90;;;;;;5052054;27;20051;-90
2023/01/24 07:41:37;;;;;;;0.80;0.80;;;3.10;99.90;;;;;;5056309;27;20053;-91
2023/01/24 07:44:06;;;;;;;0.70;0.70;;;3.10;99.90;;;;;;5054924;27;20051;-91
2023/01/24 07:46:33;;;;;;;0.77;0.77;;;3.00;99.90;;;;;;5059118;27;20650;-92
2023/01/24 07:48:59;;;;;;;0.70;0.70;;;3.00;99.90;;;;;;5044249;27;20058;-91
2023/01/24 07:51:25;;;;;;;0.70;0.70;;;3.10;99.90;;;;;;5057186;27;20047;-88
2023/01/24 07:53:51;;;;;;;0.80;0.80;;;3.00;99.90;;;;;;5044718;27;20466;-91
2023/01/24 07:56:17;;;;;;;0.70;0.70;;;3.00;99.90;;;;;;5040937;27;20035;-91
2023/01/24 07:58:43;;;;;;;0.70;0.70;;;3.10;99.90;;;;;;5051287;27;20059;-90
2023/01/24 08:01:09;;;;;;;0.80;0.80;;;3.10;99.90;;;;;;5042470;27;20046;-91
2023/01/24 08:03:35;;;;;;;0.80;0.80;;;3.10;99.90;;;;;;5051666;27;20323;-91
2023/01/24 08:06:04;;;;;;;0.70;0.70;;;3.10;99.90;;;;;;5052508;27;20047;-91
2023/01/24 08:08:30;;;;;;;0.70;0.70;;;3.10;99.90;;;;;;5052710;27;20039;-90
2023/01/24 08:10:56;;;;;;;0.70;0.70;;;3.10;99.90;;;;;;5051209;27;20452;-91
2023/01/24 08:13:24;;;;;;;0.70;0.70;;;3.10;99.90;;;;;;5047312;27;20071;-89
2023/01/24 08:15:50;;;;;;;0.70;0.70;;;3.10;99.90;;;;;;5032015;27;20376;-90
2023/01/24 08:18:22;;;;;;;0.70;0.70;;;3.10;99.90;;;;;;5037589;27;20042;-90
2023/01/24 08:20:48;;;;;;;0.70;0.70;;;3.10;99.90;;;;;;5042714;27;20071;-90
2023/01/24 08:23:14;;;;;;;0.70;0.70;;;3.10;99.90;;;;;;5024677;27;20042;-90
2023/01/24 08:25:40;;;;;;;0.80;0.80;;;3.10;99.90;;;;;;5045579;27;20050;-90
2023/01/24 08:28:05;;;;;;;0.80;0.80;;;3.10;99.90;;;;;;5052283;27;20043;-91
2023/01/24 08:30:42;;;;;;;0.80;0.80;;;3.00;99.90;;;;;;5046793;27;20243;-91
2023/01/24 08:33:17;;;;;;;0.73;0.73;;;3.00;99.90;;;;;;5064831;27;20155;-94
2023/01/24 08:36:08;;;;;;;0.80;0.80;;;3.00;99.90;;;;;;5048103;27;20484;-91
2023/01/24 08:38:34;;;;;;;0.70;0.70;;;3.00;99.90;;;;;;5071756;27;20430;-90
2023/01/24 08:41:03;;;;;;;0.70;0.70;;;3.00;99.90;;;;;;5048222;27;20613;-90
2023/01/24 08:43:32;;;;;;;0.70;0.70;;;3.00;99.90;;;;;;5049237;27;20556;-90
2023/01/24 08:45:58;;;;;;;0.70;0.70;;;3.00;99.90;;;;;;5045799;27;20081;-91
2023/01/24 08:48:28;;;;;;;0.70;0.70;;;3.00;99.90;;;;;;5054762;27;20510;-90
2023/01/24 08:50:54;;;;;;;0.80;0.80;;;3.00;99.90;;;;;;5040205;27;20042;-90
2023/01/24 08:53:23;;;;;;;0.70;0.70;;;3.10;99.90;;;;;;5059320;27;20038;-89
2023/01/24 08:55:50;;;;;;;0.70;0.70;;;3.00;99.90;;;;;;5045750;27;20042;-90
2023/01/24 08:58:16;;;;;;;0.77;0.77;;;3.00;99.90;;;;;;5051288;27;20103;-91
2023/01/24 09:00:44;;;;;;;0.70;0.70;;;3.00;99.90;;;;;;5052905;27;20042;-90
2023/01/24 09:03:15;;;;;;;0.70;0.70;;;3.00;99.90;;;;;;5057072;27;20046;-90
2023/01/24 09:05:44;;;;;;;0.70;0.70;;;3.00;99.90;;;;;;5051334;27;20051;-91
2023/01/24 09:08:10;;;;;;;0.80;0.80;;;3.00;99.90;;;;;;5056173;27;20907;-91
2023/01/24 09:10:38;;;;;;;0.70;0.70;;;3.00;99.90;;;;;;5032936;27;20464;-89
2023/01/24 09:13:07;;;;;;;0.70;0.70;;;3.10;99.90;;;;;;5057932;27;20050;-92
2023/01/24 09:15:33;;;;;;;0.70;0.70;;;3.10;99.90;;;;;;5041613;27;20046;-91
2023/01/24 09:18:02;;;;;;;0.70;0.70;;;3.10;99.90;;;;;;5063189;27;20445;-91
2023/01/24 09:20:28;;;;;;;0.70;0.70;;;3.10;99.90;;;;;;5052648;27;20103;-92
2023/01/24 09:22:54;;;;;;;0.75;0.75;;;3.10;99.90;;;;;;5053037;27;20082;-91
2023/01/24 09:25:22;;;;;;;0.70;0.70;;;3.20;99.90;;;;;;5027323;27;20339;-91
2023/01/24 09:27:55;;;;;;;0.77;0.77;;;3.10;99.90;;;;;;5066318;27;20054;-91
2023/01/24 09:30:22;;;;;;;0.70;0.70;;;3.10;99.90;;;;;;5052470;27;20043;-91
2023/01/24 09:32:50;;;;;;;0.80;0.80;;;3.10;99.90;;;;;;5035780;27;20406;-91
2023/01/24 09:35:16;;;;;;;0.70;0.70;;;3.20;99.90;;;;;;5043576;27;20062;-90
2023/01/24 09:37:42;;;;;;;0.70;0.70;;;3.10;99.90;;;;;;5048542;27;20146;-92
2023/01/24 09:40:28;;;;;;;0.70;0.70;;;3.10;99.90;;;;;;5046830;27;20210;-90
2023/01/24 09:43:13;;;;;;;0.70;0.70;;;3.00;99.90;;;;;;5054585;27;20093;-90
2023/01/24 09:46:04;;;;;;;0.70;0.70;;;3.00;99.90;;;;;;5048833;27;20607;-91
2023/01/24 09:48:33;;;;;;;0.70;0.70;;;3.00;99.90;;;;;;5040915;27;20095;-90
2023/01/24 09:51:04;;;;;;;0.80;0.80;;;3.10;99.90;;;;;;5029235;27;20115;-90
2023/01/24 09:53:49;;;;;;;0.70;0.70;;;3.10;99.90;;;;;;5061542;27;20473;-90
2023/01/24 09:56:41;;;;;;;0.70;0.70;;;3.10;99.90;;;;;;5051671;28;20173;-90
2023/01/24 09:59:26;;;;;;;0.70;0.70;;;3.10;99.90;;;;;;5063424;28;20039;-91
2023/01/24 10:02:02;;;;;;;0.80;0.80;;;3.10;99.90;;;;;;5059714;28;20127;-91
2023/01/24 10:04:35;;;;;;;0.80;0.80;;;3.20;99.90;;;;;;5050474;28;20051;-92
2023/01/24 10:07:20;;;;;;;0.75;0.75;;;3.10;99.90;;;;;;5059031;28;20082;-92
2023/01/24 10:09:55;;;;;;;0.70;0.70;;;3.10;99.90;;;;;;5051273;28;20043;-91
2023/01/24 10:12:33;;;;;;;0.70;0.70;;;3.10;99.90;;;;;;5044283;28;20040;-90
2023/01/24 10:14:58;;;;;;;0.90;0.90;;;3.10;99.90;;;;;;5039328;28;20453;-90
2023/01/24 10:17:50;;;;;;;0.70;0.70;;;3.10;99.90;;;;;;5041567;28;20659;-87
2023/01/24 10:20:31;;;;;;;0.70;0.70;;;3.10;99.90;;;;;;5042739;27;20054;-92
2023/01/24 10:23:05;;;;;;;0.70;0.70;;;3.10;99.90;;;;;;5051044;27;20035;-90
2023/01/24 10:26:03;;;;;;;0.80;0.80;;;3.20;99.90;;;;;;5058041;27;20166;-90
2023/01/24 10:28:40;;;;;;;0.70;0.70;;;3.20;99.90;;;;;;5030436;27;20134;-92
2023/01/24 10:31:34;;;;;;;0.77;0.77;;;3.20;99.90;;;;;;5048982;27;20990;-91
2023/01/24 10:34:14;;;;;;;0.80;0.80;;;3.10;99.90;;;;;;5045381;27;20055;-91
2023/01/24 10:36:49;;;;;;;0.85;0.85;;;3.10;99.90;;;;;;5051618;27;20353;-91
2023/01/24 10:39:15;;;;;;;0.70;0.70;;;3.10;99.90;;;;;;5047689;27;20039;-89
2023/01/24 10:41:41;;;;;;;0.73;0.73;;;3.10;99.90;;;;;;5046730;27;20414;-90
2023/01/24 10:44:30;;;;;;;0.70;0.70;;;3.10;99.90;;;;;;5050148;27;20477;-92
2023/01/24 10:47:33;;;;;;;0.70;0.70;;;3.20;99.90;;;;;;5053602;27;21365;-87
2023/01/24 10:50:16;;;;;;;0.70;0.70;;;3.10;99.90;;;;;;5064316;27;20047;-92
2023/01/24 10:52:43;;;;;;;0.70;0.70;;;3.20;99.90;;;;;;5048648;27;20183;-91
2023/01/24 10:55:41;;;;;;;0.70;0.70;;;3.10;99.90;;;;;;5063777;27;20360;-91
2023/01/24 10:58:35;;;;;;;0.70;0.70;;;3.20;99.90;;;;;;5019614;27;21014;-92
2023/01/24 11:01:17;;;;;;;0.80;0.80;;;3.10;99.90;;;;;;5042977;27;20047;-91
2023/01/24 11:03:47;;;;;;;0.80;0.80;;;3.10;99.90;;;;;;5047297;27;20413;-91
2023/01/24 11:06:33;;;;;;;0.90;0.90;;;3.20;99.90;;;;;;5061689;27;20099;-91
2023/01/24 11:09:10;;;;;;;0.80;0.80;;;3.30;99.90;;;;;;5049028;27;20879;-92
2023/01/24 11:11:49;;;;;;;0.80;0.80;;;3.30;99.90;;;;;;5054504;27;20051;-91
2023/01/24 11:14:35;;;;;;;0.80;0.80;;;3.20;99.90;;;;;;5050786;27;20091;-94
2023/01/24 11:17:07;;;;;;;0.80;0.80;;;3.20;99.90;;;;;;5049503;27;20066;-92
2023/01/24 11:19:38;;;;;;;0.70;0.70;;;3.20;99.90;;;;;;5053592;27;20496;-90
2023/01/24 11:22:22;;;;;;;0.70;0.70;;;3.30;99.90;;;;;;5045287;27;20480;-91
2023/01/24 11:24:52;;;;;;;0.80;0.80;;;3.30;99.90;;;;;;5044109;27;20167;-91
2023/01/24 11:27:23;;;;;;;0.80;0.80;;;3.20;99.90;;;;;;5045965;27;20050;-91
2023/01/24 11:30:15;;;;;;;0.70;0.70;;;3.10;99.90;;;;;;5045560;27;20559;-90
2023/01/24 11:33:28;;;;;;;0.70;0.70;;;3.20;99.90;;;;;;5051358;27;20048;-91
2023/01/24 11:36:02;;;;;;;0.80;0.80;;;3.10;99.90;;;;;;4976144;28;20068;-90
2023/01/24 11:38:53;;;;;;;0.70;0.70;;;3.10;99.90;;;;;;5023156;27;20048;-90
2023/01/24 11:41:27;;;;;;;0.80;0.80;;;3.20;99.90;;;;;;5036160;27;20115;-90
2023/01/24 11:44:28;;;;;;;0.70;0.70;;;3.10;99.90;;;;;;5056487;27;20054;-90
2023/01/24 11:47:07;;;;;;;0.70;0.70;;;3.20;99.90;;;;;;4979889;28;20487;-90
2023/01/24 11:49:59;;;;;;;0.70;0.70;;;3.20;99.90;;;;;;5028493;27;20269;-91
2023/01/24 11:52:52;;;;;;;0.70;0.70;;;3.30;99.90;;;;;;5042690;27;20370;-90
2023/01/24 11:55:45;;;;;;;0.80;0.80;;;3.20;99.90;;;;;;5060185;27;20046;-90
2023/01/24 11:58:29;;;;;;;0.70;0.70;;;3.30;99.90;;;;;;5053728;27;20043;-93
2023/01/24 12:01:06;;;;;;;0.70;0.70;;;3.30;99.90;;;;;;5043439;27;20054;-91
2023/01/24 12:04:00;;;;;;;0.77;0.77;;;3.20;99.90;;;;;;5057317;27;20045;-91
2023/01/24 12:06:38;;;;;;;0.70;0.70;;;3.30;99.90;;;;;;5045882;27;20058;-91
2023/01/24 12:09:20;;;;;;;0.70;0.70;;;3.50;99.90;;;;;;5046405;27;20423;-91
2023/01/24 12:11:56;;;;;;;0.70;0.70;;;3.50;99.90;;;;;;5046573;27;20035;-90
2023/01/24 12:14:52;;;;;;;0.70;0.70;;;3.30;99.90;;;;;;5047032;27;20198;-90
2023/01/24 12:17:50;;;;;;;0.70;0.70;;;3.30;99.90;;;;;;5052947;27;21178;-90
2023/01/24 12:20:22;;;;;;;0.70;0.70;;;3.40;99.90;;;;;;4964550;27;20494;-90
2023/01/24 12:22:56;;;;;;;0.70;0.70;;;3.60;99.90;;;;;;5052131;27;20047;-91
2023/01/24 12:25:26;;;;;;;0.70;0.70;;;3.30;99.90;;;;;;5039511;27;20058;-91
2023/01/24 12:27:55;;;;;;;0.73;0.73;;;3.30;99.90;;;;;;5047696;27;20051;-91
2023/01/24 12:30:44;;;;;;;0.70;0.70;;;3.50;99.90;;;;;;5048665;27;20561;-91
2023/01/24 12:33:48;;;;;;;0.70;0.70;;;3.40;99.90;;;;;;5045596;27;20460;-90
2023/01/24 12:36:35;;;;;;;0.70;0.70;;;3.30;99.90;;;;;;5043764;27;20065;-90
2023/01/24 12:39:29;;;;;;;0.80;0.80;;;3.30;99.90;;;;;;5049734;27;20043;-95
2023/01/24 12:42:02;;;;;;;0.70;0.70;;;3.10;99.90;;;;;;5044341;27;20504;-91
2023/01/24 12:44:36;;;;;;;0.70;0.70;;;3.20;99.90;;;;;;5045105;27;20176;-91
2023/01/24 12:47:10;;;;;;;;;;;3.30;99.90;;;;;;5044424;27;20405;-92
2023/01/24 12:49:52;;;;;;;0.80;0.80;;;3.30;99.90;;;;;;5041201;27;19927;-90
2023/01/24 12:52:29;;;;;;;0.70;0.70;;;3.30;99.90;;;;;;5062211;27;20130;-88
2023/01/24 12:55:09;;;;;;;0.80;0.80;;;3.20;99.90;;;;;;5044734;27;20046;-90
2023/01/24 12:57:59;;;;;;;0.75;0.75;;;3.40;99.90;;;;;;5047063;27;20150;-90
2023/01/24 13:00:31;;;;;;;0.70;0.70;;;3.50;99.90;;;;;;5041468;27;20496;-90
2023/01/24 13:03:09;;;;;;;0.70;0.70;;;3.40;99.90;;;;;;5043202;27;20047;-91
2023/01/24 13:05:41;;;;;;;0.80;0.80;;;3.50;99.90;;;;;;5050051;27;20052;-91
2023/01/24 13:08:15;;;;;;;0.70;0.70;;;3.40;99.90;;;;;;5050865;27;20492;-92
2023/01/24 13:11:17;;;;;;;0.70;0.70;;;3.30;99.90;;;;;;5046994;27;20375;-90
2023/01/24 13:14:21;;;;;;;0.80;0.80;;;3.40;99.90;;;;;;5044378;27;20354;-90
2023/01/24 13:16:55;;;;;;;;;;;3.30;99.90;;;;;;5050816;27;20046;-91
2023/01/24 13:19:52;;;;;;;0.80;0.80;;;3.30;99.90;;;;;;5048115;27;20279;-91
2023/01/24 13:22:30;;;;;;;0.77;0.77;;;3.30;99.90;;;;;;5053716;27;20502;-91
2023/01/24 13:25:24;;;;;;;0.75;0.75;;;3.20;99.90;;;;;;5043272;27;20053;-90
2023/01/24 13:28:17;;;;;;;0.80;0.80;;;3.30;99.90;;;;;;5053540;27;20342;-92
2023/01/24 13:31:10;;;;;;;0.70;0.70;;;3.20;99.90;;;;;;5053221;28;20065;-92
2023/01/24 13:33:52;;;;;;;0.70;0.70;;;3.10;99.90;;;;;;5056467;27;20103;-92
2023/01/24 13:36:33;;;;;;;0.80;0.80;;;3.00;99.90;;;;;;5057407;27;20492;-92
2023/01/24 13:39:00;;;;;;;0.80;0.80;;;3.00;99.90;;;;;;5052736;27;20043;-91
2023/01/24 13:41:28;;;;;;;0.80;0.80;;;3.00;99.90;;;;;;5055300;27;20075;-93
2023/01/24 13:44:02;;;;;;;0.70;0.70;;;3.00;99.90;;;;;;5045670;28;20149;-91
2023/01/24 13:46:54;;;;;;;;;;;3.00;99.90;;;;;;5048250;27;20386;-90
2023/01/24 13:49:32;;;;;;;0.80;0.80;;;2.90;99.90;;;;;;5025775;27;19931;-91
2023/01/24 13:52:02;;;;;;;0.80;0.80;;;2.90;99.90;;;;;;5045412;28;20082;-89
2023/01/24 13:54:39;;;;;;;0.80;0.80;;;3.00;99.90;;;;;;5035285;28;20077;-90
2023/01/24 13:57:44;;;;;;;0.80;0.80;;;3.00;99.90;;;;;;5017992;28;20252;-94
2023/01/24 14:00:12;;;;;;;0.80;0.80;;;3.00;99.90;;;;;;4974221;28;20383;-92
2023/01/24 14:02:50;;;;;;;0.80;0.80;;;3.00;99.90;;;;;;5033877;28;20692;-91
2023/01/24 14:05:28;;;;;;;0.70;0.70;;;3.00;99.90;;;;;;5033477;28;20046;-93